Time;durP1;ratioP1;P1;durP2;ratioP2;P2;SDS_P1;SDS_P2;PMS_P1;PMS_P2;Temp;Humidity;BMP_temperature;BMP_pressure;BME280_temperature;BME280_humidity;BME280_pressure;Samples;Min_cycle;Max_cycle;Signal;HPM_P1;HPM_P2
2022/06/15 00:01:44;;;;;;;4.32;2.03;;;26.30;96.70;;;;;;4848364;29;20520;-83
2022/06/15 00:04:13;;;;;;;4.65;1.98;;;26.30;96.70;;;;;;4851220;29;20042;-83
2022/06/15 00:06:43;;;;;;;1.83;1.50;;;26.20;96.70;;;;;;4850095;29;20053;-83
2022/06/15 00:09:11;;;;;;;4.78;2.10;;;26.20;96.70;;;;;;4864740;29;20056;-83
2022/06/15 00:11:41;;;;;;;4.15;1.75;;;26.10;96.70;;;;;;4866594;29;20072;-82
2022/06/15 00:14:11;;;;;;;4.20;2.10;;;25.90;96.70;;;;;;4849344;29;20053;-83
2022/06/15 00:16:39;;;;;;;5.18;2.25;;;25.90;96.70;;;;;;4850753;29;20049;-82
2022/06/15 00:19:08;;;;;;;2.63;1.95;;;25.90;96.70;;;;;;4847842;29;20172;-82
2022/06/15 00:21:37;;;;;;;3.60;2.35;;;26.00;96.70;;;;;;4851153;29;20294;-83
2022/06/15 00:24:07;;;;;;;3.45;1.90;;;26.10;96.70;;;;;;4849922;29;20054;-83
2022/06/15 00:26:35;;;;;;;5.10;2.20;;;26.00;96.70;;;;;;4835772;29;20098;-83
2022/06/15 00:29:03;;;;;;;5.55;2.28;;;26.00;96.70;;;;;;4858841;29;20141;-82
2022/06/15 00:31:32;;;;;;;3.63;1.85;;;26.00;96.70;;;;;;4865981;29;20662;-82
2022/06/15 00:34:00;;;;;;;3.72;2.10;;;25.90;96.70;;;;;;4863201;29;20073;-83
2022/06/15 00:36:29;;;;;;;4.63;2.15;;;25.80;96.70;;;;;;4866128;29;20170;-83
2022/06/15 00:38:59;;;;;;;5.65;2.10;;;25.80;96.70;;;;;;4847339;29;20053;-83
2022/06/15 00:41:31;;;;;;;4.65;2.22;;;25.80;96.70;;;;;;4865540;29;20052;-82
2022/06/15 00:44:03;;;;;;;5.03;1.77;;;25.80;96.70;;;;;;4852748;29;20041;-83
2022/06/15 00:46:37;;;;;;;3.33;2.20;;;25.90;96.70;;;;;;4851322;29;20453;-83
2022/06/15 00:49:10;;;;;;;3.65;2.20;;;25.90;96.70;;;;;;4851238;29;20057;-83
2022/06/15 00:51:40;;;;;;;2.67;2.00;;;25.80;96.70;;;;;;4849225;29;20258;-82
2022/06/15 00:54:09;;;;;;;3.10;1.65;;;25.80;96.70;;;;;;4850523;29;20084;-83
2022/06/15 00:56:39;;;;;;;5.22;2.10;;;25.70;96.70;;;;;;4858606;29;20647;-82
2022/06/15 00:59:12;;;;;;;2.90;2.10;;;25.60;96.70;;;;;;4862398;29;20058;-83
2022/06/15 01:01:40;;;;;;;4.13;2.22;;;25.50;96.70;;;;;;4847927;29;20060;-83
2022/06/15 01:04:09;;;;;;;3.78;2.25;;;25.50;96.70;;;;;;4866389;29;20516;-84
2022/06/15 01:06:44;;;;;;;3.33;1.90;;;25.60;96.70;;;;;;4860913;29;20058;-83
2022/06/15 01:09:21;;;;;;;4.10;1.73;;;25.70;96.70;;;;;;4866165;29;20081;-82
2022/06/15 01:12:12;;;;;;;2.83;1.85;;;25.50;96.70;;;;;;4853579;29;20980;-83
2022/06/15 01:15:06;;;;;;;3.95;1.98;;;25.50;96.70;;;;;;4845403;29;20057;-82
2022/06/15 01:17:54;;;;;;;3.40;1.88;;;25.60;96.70;;;;;;4867904;29;20072;-83
2022/06/15 01:20:54;;;;;;;2.97;2.00;;;25.50;96.70;;;;;;4852805;29;20641;-82
2022/06/15 01:23:48;;;;;;;2.28;1.77;;;25.50;96.70;;;;;;4854766;29;20160;-82
2022/06/15 01:26:41;;;;;;;2.63;1.88;;;25.50;96.70;;;;;;4862561;29;20141;-83
2022/06/15 01:29:28;;;;;;;3.70;2.03;;;25.40;96.70;;;;;;4868989;29;20118;-83
2022/06/15 01:32:06;;;;;;;6.43;2.20;;;25.30;96.70;;;;;;4865939;29;20053;-83
2022/06/15 01:34:43;;;;;;;2.17;2.00;;;25.30;96.70;;;;;;4864851;29;20590;-83
2022/06/15 01:37:21;;;;;;;5.03;2.17;;;25.30;96.70;;;;;;4863540;29;20061;-82
2022/06/15 01:39:58;;;;;;;4.03;1.90;;;25.20;96.70;;;;;;4865409;29;20653;-83
2022/06/15 01:42:31;;;;;;;2.45;1.60;;;25.20;96.70;;;;;;4869194;29;20534;-83
2022/06/15 01:45:04;;;;;;;4.97;2.10;;;25.30;96.70;;;;;;4868630;29;20109;-83
2022/06/15 01:47:35;;;;;;;4.95;2.08;;;25.30;96.70;;;;;;4868288;29;20065;-83
2022/06/15 01:50:09;;;;;;;3.15;1.80;;;25.20;96.70;;;;;;4860153;29;20132;-83
2022/06/15 01:52:41;;;;;;;3.28;1.58;;;25.20;96.70;;;;;;4868769;29;20622;-83
2022/06/15 01:55:14;;;;;;;3.80;1.90;;;25.20;96.70;;;;;;4867942;29;20069;-83
2022/06/15 01:57:46;;;;;;;6.15;2.30;;;25.10;96.70;;;;;;4852503;29;20513;-83
2022/06/15 02:00:19;;;;;;;2.40;1.83;;;25.00;96.70;;;;;;4867813;29;20061;-83
2022/06/15 02:03:00;;;;;;;3.03;1.95;;;25.00;96.70;;;;;;4853034;29;20789;-83
2022/06/15 02:05:37;;;;;;;2.10;1.45;;;25.10;96.70;;;;;;4852799;29;20049;-83
2022/06/15 02:08:12;;;;;;;2.60;1.60;;;24.90;96.70;;;;;;4862548;29;20411;-82
2022/06/15 02:10:48;;;;;;;2.10;1.90;;;25.00;96.70;;;;;;4867574;29;20056;-83
2022/06/15 02:13:23;;;;;;;2.60;1.70;;;24.90;96.70;;;;;;4867577;29;20105;-83
2022/06/15 02:15:55;;;;;;;3.35;1.90;;;24.90;96.70;;;;;;4867997;29;20065;-83
2022/06/15 02:18:28;;;;;;;4.10;1.88;;;25.00;96.70;;;;;;4852505;29;20081;-83
2022/06/15 02:20:59;;;;;;;2.88;1.77;;;25.00;96.70;;;;;;4852473;29;20529;-83
2022/06/15 02:23:32;;;;;;;2.95;2.15;;;24.90;96.70;;;;;;4851545;29;20799;-83
2022/06/15 02:26:01;;;;;;;3.78;2.20;;;25.00;96.70;;;;;;4867407;29;20072;-82
2022/06/15 02:28:34;;;;;;;3.10;1.95;;;25.00;96.70;;;;;;4866089;29;20048;-83
2022/06/15 02:31:03;;;;;;;2.35;1.92;;;24.90;96.70;;;;;;4852416;29;20084;-83
2022/06/15 02:33:37;;;;;;;2.67;2.05;;;24.90;96.70;;;;;;4852605;29;20057;-83
2022/06/15 02:36:06;;;;;;;2.13;1.70;;;25.00;96.70;;;;;;4868385;29;20072;-83
2022/06/15 02:38:35;;;;;;;3.08;2.17;;;24.90;96.70;;;;;;4849898;29;20531;-83
2022/06/15 02:41:03;;;;;;;4.25;1.90;;;24.80;96.70;;;;;;4867464;29;20098;-83
2022/06/15 02:43:37;;;;;;;3.17;1.67;;;24.70;96.70;;;;;;4847927;29;20081;-83
2022/06/15 02:46:07;;;;;;;2.97;1.73;;;24.70;96.70;;;;;;4862884;29;20145;-84
2022/06/15 02:48:37;;;;;;;3.63;2.10;;;24.70;96.70;;;;;;4866638;29;20069;-83
2022/06/15 02:51:10;;;;;;;3.40;2.05;;;24.60;96.70;;;;;;4850320;29;20136;-82
2022/06/15 02:53:42;;;;;;;2.90;1.88;;;24.50;96.70;;;;;;4864451;29;20061;-83
2022/06/15 02:56:13;;;;;;;2.58;1.85;;;24.50;96.70;;;;;;4867815;29;20117;-84
2022/06/15 02:58:45;;;;;;;1.65;1.45;;;24.60;96.70;;;;;;4851917;29;20069;-82
2022/06/15 03:01:13;;;;;;;3.00;1.58;;;24.60;96.70;;;;;;4850771;29;20513;-82
2022/06/15 03:03:43;;;;;;;3.58;2.00;;;24.60;96.70;;;;;;4863148;29;20056;-83
2022/06/15 03:06:27;;;;;;;2.53;1.80;;;24.50;96.70;;;;;;4866370;29;20148;-83
2022/06/15 03:09:07;;;;;;;5.28;2.00;;;24.60;96.70;;;;;;4866710;29;20051;-83
2022/06/15 03:11:51;;;;;;;3.95;1.73;;;24.30;96.70;;;;;;4846362;29;20051;-83
2022/06/15 03:14:32;;;;;;;2.35;1.77;;;24.30;96.70;;;;;;4853480;29;20053;-83
2022/06/15 03:17:01;;;;;;;2.78;1.80;;;24.40;96.70;;;;;;4865088;29;20507;-82
2022/06/15 03:19:43;;;;;;;3.92;1.90;;;24.50;96.70;;;;;;4864200;29;20062;-83
2022/06/15 03:22:11;;;;;;;2.85;1.45;;;24.40;96.70;;;;;;4849370;29;20061;-83
2022/06/15 03:24:45;;;;;;;5.25;2.05;;;24.30;96.70;;;;;;4867165;29;20049;-83
2022/06/15 03:27:14;;;;;;;3.25;1.65;;;24.20;96.70;;;;;;4850439;29;20057;-83
2022/06/15 03:29:44;;;;;;;3.40;1.40;;;24.20;96.70;;;;;;4866294;29;20041;-83
2022/06/15 03:32:15;;;;;;;3.05;1.88;;;24.20;96.70;;;;;;4866217;29;20068;-83
2022/06/15 03:35:00;;;;;;;2.40;1.58;;;24.20;96.70;;;;;;4851198;29;20473;-82
2022/06/15 03:37:32;;;;;;;4.97;1.77;;;24.30;96.70;;;;;;4865573;29;20176;-82
2022/06/15 03:40:18;;;;;;;3.55;1.90;;;24.30;96.70;;;;;;4847623;29;20068;-83
2022/06/15 03:42:48;;;;;;;4.32;2.03;;;24.30;96.70;;;;;;4852320;29;20481;-83
2022/06/15 03:45:19;;;;;;;2.55;1.70;;;24.30;96.70;;;;;;4852009;29;20045;-83
2022/06/15 03:47:47;;;;;;;3.60;1.73;;;24.40;96.70;;;;;;4866431;29;20448;-82
2022/06/15 03:50:17;;;;;;;2.45;1.73;;;24.40;96.70;;;;;;4849803;29;20068;-83
2022/06/15 03:52:48;;;;;;;4.85;1.65;;;24.30;96.70;;;;;;4850846;29;20153;-83
2022/06/15 03:55:17;;;;;;;3.85;1.77;;;24.30;96.70;;;;;;4865854;29;20512;-82
2022/06/15 03:57:45;;;;;;;4.15;1.90;;;24.20;96.70;;;;;;4860715;29;20495;-83
2022/06/15 04:00:20;;;;;;;2.92;1.83;;;24.20;96.70;;;;;;4865271;29;20084;-83
2022/06/15 04:02:52;;;;;;;3.40;2.30;;;24.20;96.70;;;;;;4850962;29;20064;-83
2022/06/15 04:05:43;;;;;;;3.83;1.73;;;24.20;96.70;;;;;;4839125;29;20072;-83
2022/06/15 04:11:08;;;;;;;5.03;1.90;;;24.20;96.70;;;;;;4866209;29;20088;-83
2022/06/15 04:13:38;;;;;;;3.78;1.90;;;24.20;96.70;;;;;;4850296;29;20048;-82
2022/06/15 04:16:08;;;;;;;2.72;1.83;;;24.10;96.70;;;;;;4865268;29;20049;-83
2022/06/15 04:18:36;;;;;;;5.40;2.67;;;24.10;96.70;;;;;;4848229;29;20061;-83
2022/06/15 04:21:09;;;;;;;3.95;2.20;;;24.20;96.70;;;;;;4859542;29;20064;-83
2022/06/15 04:23:37;;;;;;;4.30;2.20;;;24.10;96.70;;;;;;4863401;29;20477;-82
2022/06/15 04:26:05;;;;;;;4.45;2.45;;;24.30;96.70;;;;;;4864760;29;20099;-83
2022/06/15 04:28:40;;;;;;;4.25;2.50;;;24.40;96.70;;;;;;4864560;29;20049;-83
2022/06/15 04:31:21;;;;;;;6.40;3.03;;;24.40;96.70;;;;;;4865622;29;20623;-83
2022/06/15 04:33:50;;;;;;;5.60;2.38;;;24.50;96.70;;;;;;4866339;29;20057;-83
2022/06/15 04:36:26;;;;;;;3.38;2.10;;;24.50;96.70;;;;;;4865506;29;20121;-88
2022/06/15 04:39:00;;;;;;;4.82;2.08;;;24.40;96.70;;;;;;4836793;29;20050;-85
2022/06/15 04:41:36;;;;;;;5.15;2.08;;;24.50;96.70;;;;;;4848376;29;20113;-83
2022/06/15 04:44:05;;;;;;;4.68;1.73;;;24.50;96.70;;;;;;4862661;29;20105;-83
2022/06/15 04:46:35;;;;;;;3.13;1.88;;;24.40;96.70;;;;;;4855238;29;20555;-83
2022/06/15 04:49:05;;;;;;;3.97;1.95;;;24.40;96.70;;;;;;4866573;29;20053;-83
2022/06/15 04:51:48;;;;;;;3.95;2.00;;;24.50;96.70;;;;;;4851095;29;20053;-83
2022/06/15 04:54:16;;;;;;;5.97;1.92;;;24.60;96.70;;;;;;4865760;29;20149;-83
2022/06/15 04:56:46;;;;;;;2.25;2.00;;;24.50;96.70;;;;;;4868803;29;20148;-84
2022/06/15 04:59:17;;;;;;;3.63;2.33;;;24.50;96.70;;;;;;4846703;29;20137;-83
2022/06/15 05:01:49;;;;;;;7.40;2.53;;;24.40;96.70;;;;;;4865838;29;20495;-84
2022/06/15 05:04:18;;;;;;;5.65;2.13;;;24.30;96.70;;;;;;4869610;29;20071;-83
2022/06/15 05:06:48;;;;;;;8.65;2.40;;;24.40;96.70;;;;;;4853524;29;20052;-83
2022/06/15 05:09:17;;;;;;;4.38;2.35;;;24.40;96.70;;;;;;4867892;29;20056;-83
2022/06/15 05:11:48;;;;;;;4.47;2.22;;;24.30;96.70;;;;;;4868960;29;20066;-83
2022/06/15 05:14:17;;;;;;;7.13;2.95;;;24.50;96.70;;;;;;4850224;29;20492;-83
2022/06/15 05:16:48;;;;;;;5.22;2.70;;;24.60;96.70;;;;;;4866581;29;20193;-84
2022/06/15 05:19:22;;;;;;;4.47;2.38;;;24.60;96.70;;;;;;4854264;29;20141;-83
2022/06/15 05:21:52;;;;;;;8.00;3.10;;;24.60;96.70;;;;;;4851928;29;20053;-84
2022/06/15 05:24:21;;;;;;;4.82;2.60;;;24.60;96.70;;;;;;4866639;29;20162;-83
2022/06/15 05:27:00;;;;;;;5.10;2.35;;;24.60;96.70;;;;;;4859501;29;20054;-83
2022/06/15 05:29:28;;;;;;;6.60;2.58;;;24.60;96.70;;;;;;4867003;29;20080;-83
2022/06/15 05:32:08;;;;;;;4.65;2.60;;;24.70;96.70;;;;;;4867476;29;20396;-84
2022/06/15 05:34:38;;;;;;;3.75;2.40;;;24.60;96.70;;;;;;4864595;29;20076;-83
2022/06/15 05:37:08;;;;;;;5.55;3.30;;;24.70;96.70;;;;;;4867636;29;20061;-83
2022/06/15 05:39:47;;;;;;;7.55;3.70;;;24.70;96.70;;;;;;4868056;29;20054;-84
2022/06/15 05:42:30;;;;;;;7.75;3.90;;;24.80;96.70;;;;;;4849337;29;20065;-84
2022/06/15 05:45:05;;;;;;;7.05;3.63;;;24.50;96.70;;;;;;4864683;29;20061;-80
2022/06/15 05:47:33;;;;;;;7.28;3.22;;;24.60;96.70;;;;;;4852923;29;20156;-81
2022/06/15 05:50:14;;;;;;;6.88;3.30;;;24.60;96.70;;;;;;4865052;29;20057;-80
2022/06/15 05:53:06;;;;;;;5.57;3.28;;;24.70;96.70;;;;;;4853374;29;20054;-82
2022/06/15 05:55:34;;;;;;;10.50;3.78;;;24.70;96.70;;;;;;4849656;29;20049;-81
2022/06/15 05:58:03;;;;;;;9.05;3.53;;;24.70;96.70;;;;;;4848694;29;20129;-81
2022/06/15 06:00:31;;;;;;;6.65;3.40;;;24.70;96.70;;;;;;4847907;29;20053;-82
2022/06/15 06:03:00;;;;;;;6.97;3.67;;;24.90;96.70;;;;;;4868116;29;20041;-82
2022/06/15 06:05:28;;;;;;;6.95;3.42;;;25.00;96.70;;;;;;4848420;29;20053;-80
2022/06/15 06:07:56;;;;;;;9.23;3.40;;;25.10;96.70;;;;;;4852387;29;20048;-76
2022/06/15 06:10:26;;;;;;;6.55;3.58;;;25.20;96.70;;;;;;4867714;29;20176;-87
2022/06/15 06:12:54;;;;;;;6.05;3.30;;;25.20;96.70;;;;;;4867509;29;20049;-81
2022/06/15 06:15:22;;;;;;;6.43;3.33;;;25.30;96.70;;;;;;4850268;29;20744;-80
2022/06/15 06:17:50;;;;;;;6.25;3.33;;;25.30;96.70;;;;;;4860718;29;20045;-80
2022/06/15 06:20:18;;;;;;;7.68;3.05;;;25.40;96.70;;;;;;4851306;29;20101;-82
2022/06/15 06:22:46;;;;;;;10.68;3.80;;;25.40;96.70;;;;;;4861826;29;20093;-82
2022/06/15 06:25:14;;;;;;;5.75;3.45;;;25.40;96.70;;;;;;4866647;29;20518;-84
2022/06/15 06:27:43;;;;;;;4.35;3.20;;;25.40;96.70;;;;;;4861741;29;20136;-83
2022/06/15 06:30:13;;;;;;;7.80;3.10;;;25.50;96.70;;;;;;4851290;29;21210;-83
2022/06/15 06:32:41;;;;;;;4.30;2.92;;;25.60;96.70;;;;;;4865810;29;20123;-84
2022/06/15 06:35:09;;;;;;;5.82;3.22;;;25.70;96.70;;;;;;4851209;29;20049;-84
2022/06/15 06:37:38;;;;;;;6.97;3.67;;;25.70;96.70;;;;;;4846711;29;20452;-83
2022/06/15 06:40:07;;;;;;;5.43;3.55;;;25.80;96.70;;;;;;4854878;29;20049;-84
2022/06/15 06:42:35;;;;;;;5.75;2.97;;;25.90;96.70;;;;;;4866307;29;20085;-84
2022/06/15 06:45:05;;;;;;;6.30;3.35;;;26.00;96.70;;;;;;4865562;29;20050;-84
2022/06/15 06:47:33;;;;;;;5.13;3.20;;;26.10;96.70;;;;;;4847321;29;20045;-83
2022/06/15 06:50:01;;;;;;;6.43;3.22;;;26.10;96.70;;;;;;4852740;29;20053;-84
2022/06/15 06:52:29;;;;;;;5.15;3.83;;;26.20;96.70;;;;;;4856014;29;20440;-84
2022/06/15 06:54:57;;;;;;;7.85;3.85;;;26.10;96.70;;;;;;4860146;29;20049;-84
2022/06/15 06:57:25;;;;;;;7.72;3.60;;;26.20;96.70;;;;;;4865244;29;20058;-84
2022/06/15 06:59:53;;;;;;;8.23;4.40;;;26.20;96.70;;;;;;4849351;29;20094;-84
2022/06/15 07:02:23;;;;;;;8.70;4.57;;;26.20;96.70;;;;;;4866855;29;20062;-84
2022/06/15 07:04:51;;;;;;;9.77;4.07;;;26.10;96.70;;;;;;4863406;29;20057;-83
2022/06/15 07:07:19;;;;;;;7.35;4.22;;;26.20;96.70;;;;;;4865788;29;20053;-83
2022/06/15 07:09:47;;;;;;;8.25;3.92;;;26.30;96.70;;;;;;4849967;29;20042;-84
2022/06/15 07:12:15;;;;;;;7.88;4.53;;;26.30;96.70;;;;;;4852619;29;20057;-83
2022/06/15 07:14:43;;;;;;;9.63;4.60;;;26.30;96.70;;;;;;4862779;29;20054;-83
2022/06/15 07:17:11;;;;;;;7.60;5.00;;;26.40;96.70;;;;;;4864287;29;20068;-83
2022/06/15 07:19:47;;;;;;;11.18;6.05;;;26.50;96.70;;;;;;4849726;29;20094;-83
2022/06/15 07:22:15;;;;;;;9.80;5.07;;;26.50;96.70;;;;;;4848179;29;20164;-83
2022/06/15 07:24:43;;;;;;;7.07;4.68;;;26.60;96.70;;;;;;4852951;29;20052;-84
2022/06/15 07:27:11;;;;;;;8.70;4.85;;;26.60;96.70;;;;;;4849491;29;20173;-84
2022/06/15 07:29:40;;;;;;;9.32;4.80;;;26.70;96.70;;;;;;4867490;29;20053;-84
2022/06/15 07:32:08;;;;;;;9.73;5.18;;;26.70;96.70;;;;;;4863587;29;20570;-84
2022/06/15 07:34:36;;;;;;;11.38;5.22;;;26.80;96.70;;;;;;4850944;29;20509;-84
2022/06/15 07:37:07;;;;;;;10.02;4.72;;;26.90;96.70;;;;;;4849780;29;20053;-83
2022/06/15 07:39:36;;;;;;;7.85;4.55;;;26.90;96.70;;;;;;4866496;29;20505;-83
2022/06/15 07:42:06;;;;;;;7.75;4.88;;;27.00;96.70;;;;;;4848905;29;20108;-85
2022/06/15 07:44:36;;;;;;;9.05;4.75;;;27.10;96.70;;;;;;4865820;29;20052;-84
2022/06/15 07:49:55;;;;;;;8.00;4.90;;;27.10;96.70;;;;;;4852202;29;20037;-86
2022/06/15 07:52:47;;;;;;;6.60;3.25;;;27.20;96.70;;;;;;4850231;29;20073;-85
2022/06/15 07:55:18;;;;;;;8.52;3.22;;;27.30;96.70;;;;;;4852612;29;20049;-84
2022/06/15 07:57:46;;;;;;;6.03;3.35;;;27.50;96.70;;;;;;4866341;29;20120;-84
2022/06/15 08:00:15;;;;;;;6.47;3.38;;;27.50;96.70;;;;;;4863882;29;20078;-84
2022/06/15 08:02:43;;;;;;;9.90;4.40;;;27.60;96.70;;;;;;4865359;29;20162;-84
2022/06/15 08:05:11;;;;;;;6.53;3.92;;;27.60;96.70;;;;;;4864209;29;20076;-86
2022/06/15 08:07:40;;;;;;;7.03;3.95;;;27.70;96.70;;;;;;4865906;29;20077;-84
2022/06/15 08:10:10;;;;;;;7.45;3.33;;;27.80;96.70;;;;;;4866653;29;20074;-85
2022/06/15 08:12:38;;;;;;;5.80;4.05;;;27.90;96.70;;;;;;4863496;29;20136;-85
2022/06/15 08:15:08;;;;;;;7.70;4.07;;;27.90;96.70;;;;;;4849158;29;20132;-83
2022/06/15 08:17:41;;;;;;;7.70;4.13;;;27.90;96.70;;;;;;4855271;29;20057;-83
2022/06/15 08:20:20;;;;;;;9.23;3.63;;;28.00;96.70;;;;;;4860936;29;20090;-82
2022/06/15 08:22:51;;;;;;;7.65;4.07;;;28.00;96.70;;;;;;4866592;29;20093;-84
2022/06/15 08:25:24;;;;;;;7.15;3.83;;;28.00;96.70;;;;;;4854372;29;20053;-84
2022/06/15 08:27:53;;;;;;;8.45;4.47;;;28.00;96.70;;;;;;4865632;29;20053;-84
2022/06/15 08:30:22;;;;;;;10.52;4.18;;;28.10;96.70;;;;;;4849470;29;20128;-83
2022/06/15 08:32:50;;;;;;;7.68;4.15;;;28.20;96.70;;;;;;4856170;29;20105;-82
2022/06/15 08:35:18;;;;;;;5.25;4.05;;;28.30;96.70;;;;;;4868962;29;20053;-82
2022/06/15 08:37:46;;;;;;;7.00;4.28;;;28.30;96.70;;;;;;4854535;29;20839;-83
2022/06/15 08:40:15;;;;;;;6.97;3.25;;;28.30;96.70;;;;;;4867834;29;20386;-84
2022/06/15 08:42:53;;;;;;;7.13;3.40;;;28.30;96.70;;;;;;4868183;29;20053;-84
2022/06/15 08:45:30;;;;;;;6.15;3.45;;;28.40;96.70;;;;;;4850390;29;20053;-84
2022/06/15 08:48:18;;;;;;;6.45;3.92;;;28.50;96.70;;;;;;4865806;29;20469;-84
2022/06/15 08:50:51;;;;;;;7.32;3.33;;;28.60;96.70;;;;;;4865843;29;20143;-83
2022/06/15 08:53:25;;;;;;;5.68;3.70;;;28.70;96.70;;;;;;4855341;29;20065;-84
2022/06/15 08:56:00;;;;;;;6.68;3.60;;;28.80;96.70;;;;;;4868769;29;20058;-83
2022/06/15 08:58:41;;;;;;;6.78;3.40;;;28.70;96.70;;;;;;4868966;29;20118;-83
2022/06/15 09:01:18;;;;;;;4.95;3.08;;;28.80;96.70;;;;;;4854054;29;20144;-83
2022/06/15 09:03:53;;;;;;;3.92;2.85;;;28.90;96.70;;;;;;4869984;29;20161;-83
2022/06/15 09:06:43;;;;;;;9.05;3.20;;;28.90;96.70;;;;;;4868906;29;20061;-83
2022/06/15 09:09:40;;;;;;;6.57;3.42;;;28.90;96.70;;;;;;4850067;29;20073;-83
2022/06/15 09:15:15;;;;;;;8.82;3.28;;;29.10;96.70;;;;;;4864633;29;20053;-84
2022/06/15 09:17:46;;;;;;;7.30;3.63;;;29.20;96.70;;;;;;4866826;29;20136;-83
2022/06/15 09:20:20;;;;;;;7.10;3.38;;;29.30;96.70;;;;;;4850132;29;20057;-83
2022/06/15 09:22:52;;;;;;;5.75;3.67;;;29.40;96.70;;;;;;4868340;29;20093;-83
2022/06/15 09:25:28;;;;;;;7.25;3.30;;;29.40;96.70;;;;;;4852864;29;20534;-85
2022/06/15 09:28:01;;;;;;;4.23;3.13;;;29.40;96.70;;;;;;4869304;29;20721;-84
2022/06/15 09:30:34;;;;;;;4.15;3.20;;;29.50;96.70;;;;;;4854796;29;20045;-84
2022/06/15 09:33:07;;;;;;;4.25;3.03;;;29.50;96.70;;;;;;4854375;29;20046;-83
2022/06/15 09:35:38;;;;;;;6.50;3.80;;;29.60;96.70;;;;;;4854030;29;20056;-84
2022/06/15 09:38:10;;;;;;;5.55;3.10;;;29.70;96.70;;;;;;4866818;29;20069;-84
2022/06/15 09:40:47;;;;;;;4.00;2.80;;;29.70;96.70;;;;;;4849943;29;20093;-84
2022/06/15 09:43:26;;;;;;;7.88;2.90;;;29.80;96.70;;;;;;4865493;29;20508;-84
2022/06/15 09:46:08;;;;;;;4.32;2.75;;;29.90;96.70;;;;;;4855176;29;20141;-84
2022/06/15 09:48:48;;;;;;;7.80;3.20;;;30.00;96.70;;;;;;4866548;29;20092;-84
2022/06/15 09:51:25;;;;;;;4.97;3.05;;;30.00;96.70;;;;;;4867437;29;20066;-84
2022/06/15 09:54:05;;;;;;;8.07;3.58;;;30.00;96.70;;;;;;4866803;29;20528;-84
2022/06/15 09:56:34;;;;;;;6.35;3.38;;;30.20;96.70;;;;;;4868530;29;20101;-85
2022/06/15 09:59:06;;;;;;;7.10;3.90;;;30.20;96.70;;;;;;4867143;29;20046;-84
2022/06/15 10:01:38;;;;;;;6.28;3.20;;;30.30;96.70;;;;;;4861881;29;20052;-84
2022/06/15 10:04:11;;;;;;;6.57;3.75;;;30.40;96.70;;;;;;4853912;29;20041;-84
2022/06/15 10:07:04;;;;;;;8.68;3.83;;;30.30;96.70;;;;;;4862696;29;20054;-82
2022/06/15 10:09:36;;;;;;;5.85;4.25;;;30.20;96.70;;;;;;4845994;29;20117;-86
2022/06/15 10:15:16;;;;;;;7.90;3.50;;;30.50;96.70;;;;;;4852147;29;20045;-85
2022/06/15 10:17:49;;;;;;;7.40;3.33;;;30.70;96.70;;;;;;4863530;29;20053;-85
2022/06/15 10:20:24;;;;;;;7.32;3.70;;;30.70;96.70;;;;;;4848346;29;20042;-85
2022/06/15 10:22:55;;;;;;;6.32;3.15;;;30.80;96.70;;;;;;4867229;29;20160;-84
2022/06/15 10:25:23;;;;;;;5.18;3.45;;;31.00;96.70;;;;;;4857864;29;20488;-84
2022/06/15 10:28:12;;;;;;;4.95;3.60;;;31.10;96.70;;;;;;4852650;29;20060;-85
2022/06/15 10:30:54;;;;;;;4.80;3.22;;;31.30;96.70;;;;;;4865138;29;20512;-83
2022/06/15 10:33:33;;;;;;;3.63;2.85;;;31.50;96.70;;;;;;4865241;29;20053;-83
2022/06/15 10:36:02;;;;;;;6.63;3.60;;;31.60;96.70;;;;;;4851906;29;20065;-82
2022/06/15 10:38:37;;;;;;;7.82;3.55;;;31.70;96.70;;;;;;4856629;29;20037;-83
2022/06/15 10:43:52;;;;;;;4.47;3.25;;;32.20;96.70;;;;;;4848337;29;20049;-83
2022/06/15 10:46:21;;;;;;;5.00;3.08;;;32.30;96.70;;;;;;4865100;29;20078;-83
2022/06/15 10:48:54;;;;;;;3.65;3.08;;;32.30;96.10;;;;;;4867534;29;20126;-84
2022/06/15 10:51:31;;;;;;;3.65;3.10;;;32.20;95.90;;;;;;4852777;29;20924;-84
2022/06/15 10:54:19;;;;;;;6.43;3.10;;;32.40;96.20;;;;;;4866803;29;20061;-85
2022/06/15 11:02:31;;;;;;;4.63;2.35;;;32.30;94.90;;;;;;4844689;29;20513;-85
2022/06/15 11:05:04;;;;;;;4.97;2.40;;;32.30;95.20;;;;;;4867683;29;20058;-84
2022/06/15 11:07:39;;;;;;;6.85;2.55;;;32.40;95.60;;;;;;4849898;29;20045;-86
2022/06/15 11:10:21;;;;;;;4.28;2.33;;;32.50;92.10;;;;;;4849135;29;20054;-85
2022/06/15 11:12:54;;;;;;;7.03;2.53;;;32.70;92.10;;;;;;4849291;29;20046;-86
2022/06/15 11:18:01;;;;;;;2.95;2.10;;;32.70;91.40;;;;;;4852070;29;20567;-84
2022/06/15 11:18:25;;;;;;;4.35;2.20;;;32.80;91.20;;;;;;4863628;29;20056;-85
2022/06/15 11:21:01;;;;;;;4.13;2.45;;;33.00;91.60;;;;;;4866154;29;20049;-85
2022/06/15 11:23:36;;;;;;;3.28;2.28;;;33.20;90.70;;;;;;4864797;29;20106;-85
2022/06/15 11:26:59;;;;;;;4.45;2.25;;;33.20;90.60;;;;;;4866450;29;20045;-84
2022/06/15 11:29:09;;;;;;;4.87;2.53;;;33.20;91.00;;;;;;4855594;29;20053;-83
2022/06/15 11:32:03;;;;;;;3.63;2.10;;;33.20;90.40;;;;;;4862455;29;20051;-83
2022/06/15 11:34:37;;;;;;;4.40;2.63;;;33.30;90.00;;;;;;4866594;29;20049;-84
2022/06/15 11:37:14;;;;;;;5.10;2.20;;;33.30;89.90;;;;;;4853970;29;20133;-83
2022/06/15 11:39:46;;;;;;;3.60;2.10;;;33.50;90.10;;;;;;4864885;29;20136;-85
2022/06/15 11:42:16;;;;;;;3.50;1.83;;;33.60;90.60;;;;;;4835245;29;20053;-84
2022/06/15 11:44:45;;;;;;;3.42;1.90;;;33.80;89.70;;;;;;4856991;29;20664;-84
2022/06/15 11:47:25;;;;;;;3.33;2.00;;;33.80;89.40;;;;;;4854154;29;20052;-83
2022/06/15 11:49:59;;;;;;;4.07;2.22;;;33.80;89.00;;;;;;4860777;29;20044;-84
2022/06/15 11:52:44;;;;;;;5.00;2.20;;;33.90;88.60;;;;;;4865593;29;20045;-85
2022/06/15 11:55:37;;;;;;;2.83;2.00;;;33.80;88.50;;;;;;4866279;29;20065;-84
2022/06/15 11:58:23;;;;;;;4.35;1.98;;;34.00;89.10;;;;;;4847023;29;20455;-85
2022/06/15 12:01:00;;;;;;;24.90;3.65;;;34.10;89.50;;;;;;4849917;29;20781;-81
2022/06/15 12:04:02;;;;;;;9.30;2.42;;;34.10;90.40;;;;;;4867087;29;20053;-87
2022/06/15 12:06:37;;;;;;;3.72;2.08;;;34.20;91.20;;;;;;4857358;29;20056;-85
2022/06/15 12:09:22;;;;;;;6.40;2.50;;;34.20;91.00;;;;;;4849221;29;20049;-85
2022/06/15 12:14:52;;;;;;;3.22;2.33;;;34.00;91.00;;;;;;4847046;29;20050;-85
2022/06/15 12:17:30;;;;;;;8.75;2.60;;;34.00;91.60;;;;;;4867853;29;20084;-86
2022/06/15 12:20:06;;;;;;;3.97;2.30;;;34.10;90.40;;;;;;4861089;29;20054;-86
2022/06/15 12:22:44;;;;;;;4.90;1.90;;;34.10;90.40;;;;;;4866202;29;20061;-88
2022/06/15 12:25:21;;;;;;;3.45;2.10;;;34.20;89.50;;;;;;4863568;29;20082;-86
2022/06/15 12:27:56;;;;;;;4.55;2.03;;;34.10;89.50;;;;;;4863242;29;20592;-85
2022/06/15 12:30:33;;;;;;;3.88;2.30;;;34.20;90.00;;;;;;4864546;29;20076;-85
2022/06/15 12:33:15;;;;;;;5.70;2.80;;;34.50;90.00;;;;;;4863580;29;20045;-85
2022/06/15 12:35:49;;;;;;;4.95;2.40;;;34.50;90.90;;;;;;4866390;29;20053;-86
2022/06/15 12:38:24;;;;;;;4.75;2.35;;;34.30;90.80;;;;;;4851233;29;20041;-84
2022/06/15 12:41:04;;;;;;;4.80;2.67;;;34.30;91.30;;;;;;4864812;29;20057;-83
2022/06/15 12:43:36;;;;;;;6.72;2.75;;;34.30;91.90;;;;;;4865664;29;20144;-84
2022/06/15 12:46:10;;;;;;;2.95;2.05;;;34.30;91.10;;;;;;4847257;29;20049;-84
2022/06/15 12:48:52;;;;;;;4.25;2.20;;;34.30;90.80;;;;;;4849961;29;20411;-83
2022/06/15 12:51:31;;;;;;;6.13;2.33;;;34.30;91.80;;;;;;4862814;29;20053;-86
2022/06/15 12:54:12;;;;;;;11.30;3.17;;;34.40;93.40;;;;;;4849952;29;20192;-87
2022/06/15 12:56:52;;;;;;;5.13;2.10;;;34.20;94.10;;;;;;4866570;29;20581;-86
2022/06/15 12:59:33;;;;;;;4.78;2.20;;;34.20;93.70;;;;;;4864451;29;20050;-86
2022/06/15 13:02:09;;;;;;;4.78;2.30;;;34.40;93.20;;;;;;4851407;29;20109;-85
2022/06/15 13:04:47;;;;;;;6.10;2.20;;;34.50;93.80;;;;;;4862634;29;20054;-86
2022/06/15 13:07:24;;;;;;;4.65;2.38;;;34.30;93.90;;;;;;4853133;29;20069;-86
2022/06/15 13:10:24;;;;;;;10.02;2.90;;;34.60;94.00;;;;;;4852288;29;20049;-86
2022/06/15 13:12:57;;;;;;;8.18;2.30;;;34.40;94.40;;;;;;4865150;29;20057;-88
2022/06/15 13:15:31;;;;;;;7.40;2.33;;;34.50;94.20;;;;;;4871071;29;20051;-85
2022/06/15 13:18:14;;;;;;;5.35;2.22;;;34.50;94.70;;;;;;4869505;29;20164;-86
2022/06/15 13:21:03;;;;;;;3.58;2.42;;;34.50;94.90;;;;;;4865665;29;20054;-87
2022/06/15 13:23:36;;;;;;;4.80;2.22;;;34.60;94.80;;;;;;4870596;29;20474;-86
2022/06/15 13:26:11;;;;;;;2.70;2.03;;;34.50;94.40;;;;;;4850557;29;20101;-85
2022/06/15 13:28:44;;;;;;;4.32;2.47;;;34.30;94.60;;;;;;4854098;29;20165;-86
2022/06/15 13:31:34;;;;;;;5.80;2.30;;;34.40;93.60;;;;;;4855976;29;20049;-85
2022/06/15 13:34:09;;;;;;;7.50;2.25;;;34.40;93.60;;;;;;4849034;29;20057;-87
2022/06/15 13:36:38;;;;;;;6.35;2.83;;;34.60;93.20;;;;;;4868491;29;20091;-85
2022/06/15 13:39:27;;;;;;;5.95;2.70;;;34.60;92.90;;;;;;4854767;29;20116;-85
2022/06/15 13:42:24;;;;;;;3.92;2.50;;;34.80;93.20;;;;;;4870200;29;20586;-88
2022/06/15 13:44:53;;;;;;;3.17;2.20;;;34.70;92.30;;;;;;4855317;29;20057;-86